Time;durP1;ratioP1;P1;durP2;ratioP2;P2;SDS_P1;SDS_P2;PMS_P1;PMS_P2;Temp;Humidity;BMP_temperature;BMP_pressure;BME280_temperature;BME280_humidity;BME280_pressure;Samples;Min_cycle;Max_cycle;Signal;HPM_P1;HPM_P2
2020/12/25 00:01:20;;;;;;;1.10;0.00;;;;;;;5.83;97.49;101022.69;5042597;28;20468;-78
2020/12/25 00:03:46;;;;;;;1.30;0.10;;;;;;;5.72;97.23;101023.28;5031299;28;20185;-78
2020/12/25 00:06:12;;;;;;;1.10;0.10;;;;;;;5.82;97.62;101026.44;5038779;28;20458;-79
2020/12/25 00:08:37;;;;;;;1.20;0.10;;;;;;;5.88;97.57;101019.09;5049891;28;20827;-79
2020/12/25 00:11:03;;;;;;;1.10;0.10;;;;;;;5.86;98.09;101024.75;5031769;28;20193;-79
2020/12/25 00:13:29;;;;;;;1.10;0.10;;;;;;;5.91;97.73;101023.78;5039869;28;20191;-79
2020/12/25 00:15:55;;;;;;;1.10;0.10;;;;;;;5.91;98.13;101026.47;5032947;28;20802;-78
2020/12/25 00:18:20;;;;;;;1.00;0.00;;;;;;;5.91;98.29;101032.59;5034092;28;20176;-78
2020/12/25 00:20:50;;;;;;;1.10;0.10;;;;;;;5.89;98.07;101039.34;5028874;28;20578;-77
2020/12/25 00:23:16;;;;;;;1.10;0.10;;;;;;;5.91;98.55;101029.94;5021736;28;20454;-78
2020/12/25 00:25:42;;;;;;;1.10;0.10;;;;;;;5.92;98.40;101034.16;5019240;28;20448;-79
2020/12/25 00:28:07;;;;;;;1.30;0.10;;;;;;;5.93;98.50;101032.28;5030800;28;20178;-78
2020/12/25 00:30:33;;;;;;;1.10;0.10;;;;;;;5.92;98.79;101034.16;5029891;28;20326;-79
2020/12/25 00:32:58;;;;;;;1.20;0.10;;;;;;;5.94;98.83;101036.53;5027642;28;20183;-78
2020/12/25 00:35:24;;;;;;;2.00;0.17;;;;;;;5.92;98.49;101036.06;5010162;28;20860;-78
2020/12/25 00:37:49;;;;;;;1.10;0.00;;;;;;;5.89;98.47;101042.81;5031042;28;20179;-79
2020/12/25 00:40:15;;;;;;;1.10;0.10;;;;;;;5.89;98.72;101037.47;5029816;28;20230;-78
2020/12/25 00:42:40;;;;;;;1.10;0.10;;;;;;;5.90;98.66;101038.28;5026361;28;20210;-79
2020/12/25 00:45:06;;;;;;;1.40;0.10;;;;;;;5.88;98.49;101043.13;5027562;28;20184;-77
2020/12/25 00:47:31;;;;;;;1.30;0.10;;;;;;;5.90;98.49;101046.28;5026784;28;20180;-77
2020/12/25 00:49:57;;;;;;;1.30;0.20;;;;;;;5.90;98.23;101056.97;5028839;28;20186;-77
2020/12/25 00:52:24;;;;;;;1.10;0.10;;;;;;;5.94;98.15;101056.00;5021897;28;20203;-79
2020/12/25 00:54:53;;;;;;;1.10;0.00;;;;;;;5.96;98.29;101051.16;5010280;28;20489;-79
2020/12/25 00:57:19;;;;;;;1.10;0.10;;;;;;;6.00;98.17;101054.00;5022315;28;20513;-79
2020/12/25 00:59:57;;;;;;;1.43;0.10;;;;;;;5.96;98.01;101061.84;5020061;28;20819;-78
2020/12/25 01:02:23;;;;;;;1.10;0.10;;;;;;;5.99;98.21;101063.91;5028279;28;20478;-78
2020/12/25 01:04:49;;;;;;;1.10;0.00;;;;;;;6.01;98.48;101059.03;5008991;28;20177;-80
2020/12/25 01:07:15;;;;;;;1.10;0.00;;;;;;;6.00;98.49;101059.34;5028585;28;20442;-79
2020/12/25 01:09:40;;;;;;;1.10;0.00;;;;;;;6.01;98.32;101069.72;5037024;28;20491;-79
2020/12/25 01:12:06;;;;;;;1.40;0.10;;;;;;;6.00;98.46;101068.13;5025935;28;20227;-78
2020/12/25 01:14:32;;;;;;;1.20;0.10;;;;;;;6.00;98.95;101065.47;5029568;28;20192;-78
2020/12/25 01:16:58;;;;;;;1.10;0.00;;;;;;;5.99;99.12;101074.59;5028200;28;20180;-79
2020/12/25 01:19:25;;;;;;;1.10;0.10;;;;;;;5.98;99.03;101077.59;5030542;28;21080;-79
2020/12/25 01:21:51;;;;;;;1.30;0.23;;;;;;;5.99;99.40;101073.78;5020418;28;20462;-79
2020/12/25 01:24:17;;;;;;;3.47;0.20;;;;;;;5.99;99.22;101077.25;5030057;28;20434;-79
2020/12/25 01:26:42;;;;;;;1.10;0.10;;;;;;;5.99;99.42;101093.31;5028614;28;20442;-79
2020/12/25 01:29:08;;;;;;;1.20;0.10;;;;;;;5.95;99.83;101094.22;5026799;28;20322;-79
2020/12/25 01:31:33;;;;;;;1.20;0.10;;;;;;;5.91;100.00;101096.75;5026425;28;20204;-77
2020/12/25 01:33:59;;;;;;;1.20;0.10;;;;;;;5.95;100.00;101104.91;5027646;28;20192;-79
2020/12/25 01:36:25;;;;;;;1.10;0.10;;;;;;;5.88;100.00;101109.94;5026466;28;20668;-79
2020/12/25 01:38:51;;;;;;;2.60;0.30;;;;;;;5.90;100.00;101115.75;5026151;28;20204;-79
2020/12/25 01:41:17;;;;;;;1.10;0.10;;;;;;;5.92;100.00;101110.91;5033978;28;20493;-78
2020/12/25 01:43:42;;;;;;;1.20;0.10;;;;;;;5.84;100.00;101117.81;5033066;28;20442;-80
2020/12/25 01:46:08;;;;;;;1.30;0.20;;;;;;;5.86;100.00;101120.16;5027645;28;20184;-79
2020/12/25 01:48:35;;;;;;;1.30;0.10;;;;;;;5.81;100.00;101122.94;5029592;28;20180;-78
2020/12/25 01:51:00;;;;;;;1.37;0.10;;;;;;;5.79;100.00;101122.47;5031171;28;20482;-78
2020/12/25 01:53:27;;;;;;;1.30;0.10;;;;;;;5.81;100.00;101120.25;5028330;28;20474;-79
2020/12/25 01:55:55;;;;;;;1.40;0.20;;;;;;;5.77;100.00;101120.09;5028676;28;20173;-79
2020/12/25 01:58:20;;;;;;;1.10;0.10;;;;;;;5.79;100.00;101122.47;5026655;28;20435;-79
2020/12/25 02:00:46;;;;;;;1.20;0.10;;;;;;;5.72;100.00;101116.78;5034339;28;21017;-79
2020/12/25 02:03:14;;;;;;;1.13;0.07;;;;;;;5.70;100.00;101127.00;5030762;28;20501;-79
2020/12/25 02:05:45;;;;;;;1.37;0.20;;;;;;;5.67;100.00;101119.59;5032494;28;20802;-79
2020/12/25 02:08:11;;;;;;;1.17;0.10;;;;;;;5.66;100.00;101120.69;5023942;28;20434;-79
2020/12/25 02:10:38;;;;;;;1.30;0.10;;;;;;;5.57;100.00;101126.03;5015608;28;20885;-79
2020/12/25 02:13:07;;;;;;;1.60;0.10;;;;;;;5.49;100.00;101124.91;5022869;28;20814;-78
2020/12/25 02:15:35;;;;;;;1.10;0.10;;;;;;;5.49;100.00;101143.59;5036304;28;20444;-78
2020/12/25 02:18:01;;;;;;;1.40;0.20;;;;;;;5.40;100.00;101132.06;5032434;28;20450;-80
2020/12/25 02:20:27;;;;;;;1.63;0.10;;;;;;;5.30;100.00;101144.91;5037469;28;20430;-80
2020/12/25 02:22:52;;;;;;;1.40;0.13;;;;;;;5.22;100.00;101145.66;5025489;28;20463;-78
2020/12/25 02:25:18;;;;;;;1.17;0.10;;;;;;;5.23;100.00;101142.69;5034167;28;20649;-79
2020/12/25 02:27:43;;;;;;;1.50;0.33;;;;;;;5.20;100.00;101147.84;5024925;28;20180;-77
2020/12/25 02:30:09;;;;;;;2.23;0.17;;;;;;;5.08;100.00;101160.97;5028200;28;20183;-79
2020/12/25 02:32:35;;;;;;;1.30;0.10;;;;;;;4.95;100.00;101164.50;5027488;28;20243;-80
2020/12/25 02:35:02;;;;;;;1.30;0.20;;;;;;;4.95;100.00;101162.63;5033148;28;20192;-80
2020/12/25 02:37:27;;;;;;;1.20;0.10;;;;;;;4.93;100.00;101169.34;5034120;28;20462;-78
2020/12/25 02:39:53;;;;;;;1.20;0.10;;;;;;;4.81;100.00;101166.44;5006333;28;20441;-78
2020/12/25 02:42:19;;;;;;;1.20;0.10;;;;;;;4.80;100.00;101165.63;5031595;28;20230;-80
2020/12/25 02:44:45;;;;;;;1.53;0.20;;;;;;;4.87;100.00;101171.34;5030988;28;20450;-76
2020/12/25 02:47:10;;;;;;;1.20;0.10;;;;;;;4.85;100.00;101170.06;5024939;28;20233;-80
2020/12/25 02:49:37;;;;;;;1.20;0.10;;;;;;;4.83;100.00;101166.91;5033757;28;20184;-77
2020/12/25 02:52:03;;;;;;;1.20;0.10;;;;;;;4.81;100.00;101171.75;5029752;28;20255;-80
2020/12/25 02:54:28;;;;;;;1.60;0.20;;;;;;;4.74;100.00;101180.22;5035815;28;20478;-79
2020/12/25 02:56:54;;;;;;;1.47;0.20;;;;;;;4.67;100.00;101179.81;5034088;28;20550;-77
2020/12/25 02:59:19;;;;;;;1.33;0.10;;;;;;;4.64;100.00;101187.63;5032096;28;20184;-78
2020/12/25 03:01:49;;;;;;;1.30;0.10;;;;;;;4.61;100.00;101183.69;5001208;28;20295;-78
2020/12/25 03:04:15;;;;;;;2.90;0.13;;;;;;;4.46;100.00;101182.16;5000358;28;20195;-76
2020/12/25 03:06:41;;;;;;;1.40;0.20;;;;;;;4.48;100.00;101184.53;5003538;28;20487;-79
2020/12/25 03:09:07;;;;;;;1.40;0.10;;;;;;;4.35;100.00;101190.69;5010405;28;20443;-78
2020/12/25 03:11:33;;;;;;;1.80;0.27;;;;;;;4.33;100.00;101190.19;5022921;28;20468;-78
2020/12/25 03:13:58;;;;;;;1.67;0.17;;;;;;;4.20;100.00;101199.00;5032317;28;20430;-79
2020/12/25 03:16:24;;;;;;;1.40;0.10;;;;;;;4.28;100.00;101196.41;5029191;28;20213;-79
2020/12/25 03:18:49;;;;;;;1.37;0.10;;;;;;;4.18;100.00;101204.63;5034447;28;20183;-79
2020/12/25 03:21:16;;;;;;;1.27;0.13;;;;;;;4.12;100.00;101199.72;5032170;28;20816;-78
2020/12/25 03:23:41;;;;;;;1.20;0.10;;;;;;;3.97;100.00;101202.69;5031369;28;20244;-80
2020/12/25 03:26:07;;;;;;;1.20;0.00;;;;;;;3.95;100.00;101199.53;5030813;28;20447;-79
2020/12/25 03:28:33;;;;;;;1.30;0.10;;;;;;;4.00;100.00;101194.09;5034449;28;20173;-79
2020/12/25 03:30:58;;;;;;;1.50;0.20;;;;;;;4.02;100.00;101197.25;5030309;28;20465;-78
2020/12/25 03:33:24;;;;;;;1.20;0.10;;;;;;;3.93;100.00;101197.13;5042260;28;20669;-78
2020/12/25 03:35:50;;;;;;;1.27;0.10;;;;;;;3.82;100.00;101210.94;5040093;28;20195;-80
2020/12/25 03:38:15;;;;;;;1.20;0.10;;;;;;;3.73;100.00;101205.53;5033172;28;20185;-77
2020/12/25 03:40:41;;;;;;;1.20;0.10;;;;;;;3.80;100.00;101216.56;5018252;28;20966;-79
2020/12/25 03:43:07;;;;;;;1.20;0.00;;;;;;;3.76;100.00;101206.78;5041755;28;20192;-79
2020/12/25 03:45:32;;;;;;;1.20;0.10;;;;;;;3.66;100.00;101205.13;5027625;28;20213;-79
2020/12/25 03:48:00;;;;;;;1.30;0.10;;;;;;;3.68;100.00;101208.28;5022460;28;20180;-78
2020/12/25 03:50:27;;;;;;;1.25;0.10;;;;;;;3.57;100.00;101218.34;5029251;28;20181;-78
2020/12/25 03:52:53;;;;;;;1.20;0.10;;;;;;;3.57;100.00;101223.66;5015043;28;20206;-79
2020/12/25 03:55:18;;;;;;;1.20;0.10;;;;;;;3.50;100.00;101223.22;5014918;28;20235;-79
2020/12/25 03:57:44;;;;;;;2.03;0.20;;;;;;;3.50;100.00;101222.47;5028100;28;20189;-78
2020/12/25 04:00:10;;;;;;;1.20;0.00;;;;;;;3.43;100.00;101222.03;5044046;28;20205;-79
2020/12/25 04:02:35;;;;;;;1.30;0.10;;;;;;;3.43;100.00;101222.03;5031185;28;20211;-79
2020/12/25 04:05:00;;;;;;;1.60;0.10;;;;;;;3.48;100.00;101225.41;5027260;28;20226;-79
2020/12/25 04:07:26;;;;;;;1.80;0.10;;;;;;;3.41;100.00;101225.00;5031228;28;20201;-79
2020/12/25 04:09:51;;;;;;;1.40;0.10;;;;;;;3.43;100.00;101222.84;5030273;28;20359;-79
2020/12/25 04:12:17;;;;;;;1.30;0.00;;;;;;;3.50;100.00;101230.44;5032094;28;20202;-80
2020/12/25 04:14:43;;;;;;;1.20;0.00;;;;;;;3.47;100.00;101229.16;5026625;28;20184;-79
2020/12/25 04:17:08;;;;;;;1.20;0.10;;;;;;;3.44;100.00;101227.09;5030050;28;20656;-79
2020/12/25 04:19:34;;;;;;;1.20;0.00;;;;;;;3.26;100.00;101230.59;5029781;28;20176;-79
2020/12/25 04:22:00;;;;;;;1.30;0.10;;;;;;;3.33;100.00;101235.53;5029239;28;20244;-79
2020/12/25 04:24:25;;;;;;;1.40;0.10;;;;;;;3.31;100.00;101245.69;5026915;28;20214;-79
2020/12/25 04:26:51;;;;;;;1.47;0.20;;;;;;;3.19;100.00;101256.00;5027481;28;20656;-78
2020/12/25 04:29:16;;;;;;;1.90;0.10;;;;;;;3.19;100.00;101248.00;5026544;28;20833;-79
2020/12/25 04:31:42;;;;;;;2.90;0.17;;;;;;;3.21;100.00;101256.50;5019033;28;20201;-80
2020/12/25 04:34:07;;;;;;;1.20;0.10;;;;;;;3.20;100.00;101244.25;5008223;28;20187;-79
2020/12/25 04:36:33;;;;;;;1.30;0.07;;;;;;;3.16;100.00;101254.69;5010698;28;20654;-78
2020/12/25 04:38:59;;;;;;;1.37;0.20;;;;;;;3.11;100.00;101256.63;5028792;28;20249;-80
2020/12/25 04:41:24;;;;;;;1.30;0.10;;;;;;;3.21;100.00;101253.81;5025856;28;20467;-80
2020/12/25 04:43:52;;;;;;;1.30;0.10;;;;;;;3.22;100.00;101258.06;5026739;28;20217;-80
2020/12/25 04:46:17;;;;;;;1.33;0.10;;;;;;;3.21;100.00;101249.31;5030308;28;20186;-79
2020/12/25 04:48:44;;;;;;;1.30;0.10;;;;;;;3.32;100.00;101250.72;5033362;28;20826;-80
2020/12/25 04:51:10;;;;;;;1.23;0.10;;;;;;;3.03;100.00;101255.44;5030782;28;20210;-80
2020/12/25 04:53:35;;;;;;;1.30;0.10;;;;;;;3.06;100.00;101249.53;5028060;28;20555;-78
2020/12/25 04:56:01;;;;;;;1.30;0.10;;;;;;;3.04;100.00;101257.00;5029855;28;20189;-80
2020/12/25 04:58:26;;;;;;;1.30;0.10;;;;;;;2.90;100.00;101255.38;5030490;28;20178;-80
2020/12/25 05:01:03;;;;;;;1.30;0.10;;;;;;;3.05;100.00;101252.47;5033703;28;20203;-80
2020/12/25 05:03:36;;;;;;;1.27;0.10;;;;;;;3.06;100.00;101262.06;5030183;28;20196;-80
2020/12/25 05:06:03;;;;;;;1.30;0.10;;;;;;;3.10;100.00;101258.50;5023508;28;20186;-78
2020/12/25 05:08:35;;;;;;;1.27;0.00;;;;;;;3.16;100.00;101254.69;5030648;28;20454;-80
2020/12/25 05:11:00;;;;;;;1.20;0.10;;;;;;;3.16;100.00;101269.84;5032083;28;20460;-80
2020/12/25 05:13:26;;;;;;;1.23;0.07;;;;;;;3.16;100.00;101268.00;5032546;28;20829;-78
2020/12/25 05:15:52;;;;;;;1.30;0.10;;;;;;;3.15;100.00;101274.41;5028340;28;20178;-78
2020/12/25 05:18:19;;;;;;;1.27;0.07;;;;;;;3.12;100.00;101274.97;5025279;28;20809;-80
2020/12/25 05:20:45;;;;;;;1.30;0.10;;;;;;;3.09;100.00;101274.75;5020078;28;20519;-79
2020/12/25 05:23:11;;;;;;;1.30;0.10;;;;;;;3.11;100.00;101278.72;5025714;28;20958;-80
2020/12/25 05:25:40;;;;;;;1.20;0.00;;;;;;;3.06;100.00;101270.81;5029491;28;20443;-79
2020/12/25 05:28:13;;;;;;;1.30;0.23;;;;;;;3.07;100.00;101280.38;5020680;28;20196;-80
2020/12/25 05:30:45;;;;;;;1.20;0.00;;;;;;;3.05;100.00;101287.84;5023839;28;20978;-78
2020/12/25 05:33:14;;;;;;;1.20;0.07;;;;;;;3.05;100.00;101290.50;5034909;28;20483;-80
2020/12/25 05:35:40;;;;;;;1.20;0.10;;;;;;;3.05;100.00;101289.72;5040647;28;20447;-79
2020/12/25 05:38:10;;;;;;;1.30;0.10;;;;;;;3.03;100.00;101282.03;5027672;28;20452;-80
2020/12/25 05:40:42;;;;;;;1.20;0.10;;;;;;;3.08;100.00;101295.25;5029878;28;20444;-79
2020/12/25 05:43:08;;;;;;;1.30;0.10;;;;;;;2.88;100.00;101295.56;5025939;28;20208;-80
2020/12/25 05:45:38;;;;;;;1.30;0.10;;;;;;;2.94;100.00;101294.41;5030841;28;20450;-77
2020/12/25 05:48:05;;;;;;;1.40;0.10;;;;;;;2.92;100.00;101293.09;5026509;28;20179;-77
2020/12/25 05:50:31;;;;;;;1.50;0.10;;;;;;;2.92;100.00;101293.09;5031212;28;20560;-78
2020/12/25 05:52:57;;;;;;;1.27;0.10;;;;;;;2.94;100.00;101302.38;5013551;28;20548;-75
2020/12/25 05:55:23;;;;;;;1.30;0.10;;;;;;;2.90;100.00;101298.72;5030223;28;21110;-79
2020/12/25 05:57:51;;;;;;;1.33;0.10;;;;;;;2.90;100.00;101305.91;5043069;28;20195;-78
2020/12/25 06:00:19;;;;;;;1.30;0.10;;;;;;;2.92;100.00;101303.75;5037835;28;20707;-79
2020/12/25 06:02:45;;;;;;;1.23;0.10;;;;;;;2.87;100.00;101314.44;5040479;28;20851;-77
2020/12/25 06:05:13;;;;;;;1.20;0.00;;;;;;;2.83;100.00;101321.44;5030458;28;20298;-79
2020/12/25 06:07:48;;;;;;;1.45;0.08;;;;;;;2.81;100.00;101312.94;5012374;28;20172;-80
2020/12/25 06:10:28;;;;;;;1.20;0.00;;;;;;;2.61;100.00;101320.06;5032706;28;20264;-79
2020/12/25 06:12:57;;;;;;;1.25;0.10;;;;;;;2.66;100.00;101322.69;5035535;28;20213;-79
2020/12/25 06:15:26;;;;;;;1.45;0.15;;;;;;;2.59;100.00;101324.13;5035091;28;20606;-80
2020/12/25 06:18:10;;;;;;;1.25;0.08;;;;;;;2.45;100.00;101328.53;5047670;28;20184;-80
2020/12/25 06:20:39;;;;;;;1.30;0.10;;;;;;;2.41;100.00;101336.28;5034108;28;20221;-79
2020/12/25 06:23:07;;;;;;;1.40;0.10;;;;;;;2.49;100.00;101340.97;5039878;28;20180;-78
2020/12/25 06:25:32;;;;;;;1.40;0.10;;;;;;;2.38;100.00;101334.19;5044993;28;20208;-77
2020/12/25 06:28:01;;;;;;;1.20;0.10;;;;;;;2.41;100.00;101343.44;5040890;28;20180;-78
2020/12/25 06:30:29;;;;;;;1.20;0.00;;;;;;;2.47;100.00;101348.44;5010992;28;20182;-77
2020/12/25 06:32:56;;;;;;;1.30;0.10;;;;;;;2.53;100.00;101351.81;5040612;28;20222;-78
2020/12/25 06:35:34;;;;;;;1.30;0.08;;;;;;;2.59;100.00;101350.69;5048766;28;20196;-79
2020/12/25 06:38:09;;;;;;;1.30;0.10;;;;;;;2.39;100.00;101358.88;5038469;28;20209;-78
2020/12/25 06:40:35;;;;;;;1.30;0.10;;;;;;;2.43;100.00;101359.91;5038405;28;20220;-78
2020/12/25 06:43:21;;;;;;;1.30;0.10;;;;;;;2.29;100.00;101356.34;5037818;28;20292;-77
2020/12/25 06:45:52;;;;;;;1.45;0.10;;;;;;;2.15;100.00;101358.88;4984772;28;20193;-77
2020/12/25 06:48:20;;;;;;;1.20;0.08;;;;;;;2.12;100.00;101358.63;4983235;28;20287;-79
2020/12/25 06:50:51;;;;;;;1.30;0.10;;;;;;;2.18;100.00;101360.97;4978419;28;20198;-78
2020/12/25 06:53:41;;;;;;;1.40;0.10;;;;;;;2.02;100.00;101364.84;4983608;28;20191;-79
2020/12/25 06:56:08;;;;;;;1.30;0.00;;;;;;;1.95;100.00;101363.59;4992474;28;20194;-79
2020/12/25 06:58:39;;;;;;;1.30;0.00;;;;;;;2.02;100.00;101353.41;4990838;28;20658;-76
2020/12/25 07:01:04;;;;;;;1.30;0.00;;;;;;;2.10;100.00;101352.81;4975787;28;20320;-78
2020/12/25 07:03:33;;;;;;;1.30;0.00;;;;;;;2.12;100.00;101358.63;4973829;28;20283;-80
2020/12/25 07:06:00;;;;;;;1.30;0.00;;;;;;;2.14;100.00;101357.28;5001939;28;20200;-78
2020/12/25 07:08:27;;;;;;;1.30;0.00;;;;;;;2.12;100.00;101361.28;4980743;28;20625;-77
2020/12/25 07:11:08;;;;;;;1.30;0.10;;;;;;;2.07;100.00;101371.97;4989324;28;20218;-80
2020/12/25 07:13:35;;;;;;;1.30;0.00;;;;;;;2.19;100.00;101367.09;4984572;28;20266;-79
2020/12/25 07:16:02;;;;;;;1.30;0.10;;;;;;;2.09;100.00;101375.91;4988698;28;20209;-78
2020/12/25 07:18:28;;;;;;;1.70;0.28;;;;;;;2.22;100.00;101383.25;4976713;28;20209;-80
2020/12/25 07:21:02;;;;;;;1.30;0.10;;;;;;;2.08;100.00;101398.25;4988434;28;20685;-78
2020/12/25 07:23:28;;;;;;;1.30;0.10;;;;;;;2.03;100.00;101394.84;5021859;28;20448;-79
2020/12/25 07:26:00;;;;;;;1.40;0.10;;;;;;;2.10;100.00;101401.41;5033560;28;20216;-79
2020/12/25 07:28:28;;;;;;;1.23;0.00;;;;;;;2.00;100.00;101403.34;5044312;28;20275;-78
2020/12/25 07:30:56;;;;;;;1.30;0.00;;;;;;;2.04;100.00;101404.38;5043476;28;20193;-79
2020/12/25 07:33:22;;;;;;;1.30;0.00;;;;;;;2.09;100.00;101402.47;5031635;28;20267;-79
2020/12/25 07:35:48;;;;;;;1.30;0.10;;;;;;;1.96;100.00;101412.94;5032550;28;20190;-78
2020/12/25 07:38:15;;;;;;;1.63;0.10;;;;;;;1.90;100.00;101414.84;5029898;28;20236;-76
2020/12/25 07:40:44;;;;;;;1.30;0.00;;;;;;;2.04;100.00;101425.63;5037461;28;20184;-79
2020/12/25 07:43:11;;;;;;;1.40;0.10;;;;;;;2.06;100.00;101434.13;5028070;28;20258;-79
2020/12/25 07:45:37;;;;;;;1.27;0.00;;;;;;;2.15;100.00;101437.78;5034611;28;20637;-78
2020/12/25 07:48:04;;;;;;;1.30;0.10;;;;;;;2.20;100.00;101440.38;5047537;28;20221;-79
2020/12/25 07:50:43;;;;;;;1.30;0.10;;;;;;;2.21;100.00;101445.41;5038363;28;20189;-78
2020/12/25 07:53:18;;;;;;;1.30;0.00;;;;;;;2.06;100.00;101447.38;5034099;28;20687;-80
2020/12/25 07:55:45;;;;;;;1.30;0.10;;;;;;;2.07;100.00;101455.06;5035506;28;20556;-77
2020/12/25 07:58:11;;;;;;;1.40;0.17;;;;;;;2.19;100.00;101457.41;5035207;28;20622;-79
2020/12/25 08:00:37;;;;;;;1.27;0.00;;;;;;;2.28;100.00;101456.50;5035979;28;20186;-79
2020/12/25 08:03:05;;;;;;;1.30;0.10;;;;;;;2.33;100.00;101464.44;5051042;28;20563;-76
2020/12/25 08:05:30;;;;;;;1.40;0.20;;;;;;;2.33;100.00;101458.31;5044691;28;20399;-78
2020/12/25 08:07:57;;;;;;;1.30;0.07;;;;;;;2.40;100.00;101456.91;5044147;28;20190;-77
2020/12/25 08:10:23;;;;;;;1.25;0.10;;;;;;;2.45;100.00;101472.03;5042780;28;20712;-76
2020/12/25 08:12:58;;;;;;;1.63;0.10;;;;;;;2.46;100.00;101469.09;5045325;28;20194;-79
2020/12/25 08:15:27;;;;;;;1.23;0.00;;;;;;;2.52;100.00;101467.97;5025684;28;20230;-78
2020/12/25 08:17:57;;;;;;;2.30;0.10;;;;;;;2.48;100.00;101472.25;5036132;28;20208;-78
2020/12/25 08:20:22;;;;;;;1.50;0.20;;;;;;;2.53;100.00;101479.41;5047143;28;20176;-76
2020/12/25 08:22:50;;;;;;;1.40;0.17;;;;;;;2.68;100.00;101485.34;5045008;28;20219;-80
2020/12/25 08:25:17;;;;;;;1.20;0.10;;;;;;;2.71;100.00;101490.09;5034454;28;20442;-79
2020/12/25 08:27:43;;;;;;;1.40;0.10;;;;;;;2.70;100.00;101483.22;5034545;28;20452;-77
2020/12/25 08:30:08;;;;;;;1.30;0.10;;;;;;;2.80;100.00;101479.66;5033475;28;20202;-79
2020/12/25 08:32:34;;;;;;;1.30;0.07;;;;;;;2.82;100.00;101482.81;5029459;28;20201;-79
2020/12/25 08:35:18;;;;;;;1.23;0.10;;;;;;;2.84;100.00;101480.69;5034755;28;20220;-79
2020/12/25 08:38:03;;;;;;;1.30;0.10;;;;;;;2.84;100.00;101477.22;5025924;28;20236;-79
2020/12/25 08:40:31;;;;;;;1.27;0.07;;;;;;;2.79;100.00;101483.38;5044136;28;20191;-78
2020/12/25 08:43:11;;;;;;;1.20;0.00;;;;;;;2.83;100.00;101478.31;5031488;28;20470;-78
2020/12/25 08:45:39;;;;;;;1.30;0.00;;;;;;;2.87;100.00;101479.31;5032035;28;20824;-78
2020/12/25 08:48:05;;;;;;;1.25;0.00;;;;;;;2.87;100.00;101489.94;5027951;28;20279;-80
2020/12/25 08:50:31;;;;;;;1.20;0.00;;;;;;;2.89;100.00;101487.78;5030038;28;20179;-76
2020/12/25 08:53:16;;;;;;;1.20;0.00;;;;;;;2.90;100.00;101490.19;5027362;28;20927;-78
2020/12/25 08:55:54;;;;;;;1.20;0.00;;;;;;;2.98;100.00;101500.19;5033657;28;20182;-81
2020/12/25 08:58:22;;;;;;;1.20;0.00;;;;;;;2.99;100.00;101503.66;5030993;28;20453;-79
2020/12/25 09:01:01;;;;;;;1.30;0.08;;;;;;;3.02;100.00;101498.53;5026616;28;20655;-79
2020/12/25 09:03:37;;;;;;;1.30;0.10;;;;;;;3.06;100.00;101507.53;5026396;28;20187;-80
2020/12/25 09:06:02;;;;;;;1.23;0.07;;;;;;;3.10;100.00;101500.59;5043604;28;20246;-80
2020/12/25 09:08:28;;;;;;;1.40;0.10;;;;;;;3.11;100.00;101502.19;5030105;28;20458;-80
2020/12/25 09:10:53;;;;;;;1.30;0.10;;;;;;;3.16;100.00;101502.13;5032373;28;20182;-78
2020/12/25 09:13:19;;;;;;;1.40;0.10;;;;;;;3.20;100.00;101513.78;5038883;28;20182;-80
2020/12/25 09:15:44;;;;;;;1.20;0.10;;;;;;;3.27;100.00;101508.13;5035926;28;20264;-80
2020/12/25 09:18:10;;;;;;;1.20;0.10;;;;;;;3.29;100.00;101509.41;5032539;28;20731;-80
2020/12/25 09:20:55;;;;;;;1.23;0.10;;;;;;;3.35;100.00;101512.78;5029921;28;20207;-79
2020/12/25 09:23:21;;;;;;;1.38;0.10;;;;;;;3.37;100.00;101516.75;4963001;28;20236;-80
2020/12/25 09:25:47;;;;;;;1.20;0.10;;;;;;;3.36;99.86;101511.72;4973320;28;20195;-77
2020/12/25 09:28:12;;;;;;;1.20;0.10;;;;;;;3.38;99.82;101514.91;4965069;28;20901;-79
2020/12/25 09:30:38;;;;;;;1.20;0.00;;;;;;;3.36;99.31;101525.03;4979959;28;20296;-78
2020/12/25 09:33:04;;;;;;;1.20;0.00;;;;;;;3.36;99.43;101525.84;4969152;28;20197;-80
2020/12/25 09:35:29;;;;;;;1.20;0.10;;;;;;;3.43;99.61;101530.78;4976109;28;20202;-79
2020/12/25 09:37:55;;;;;;;1.37;0.10;;;;;;;3.51;99.04;101527.50;4963477;28;20301;-77
2020/12/25 09:40:20;;;;;;;1.17;0.10;;;;;;;3.49;99.60;101527.00;4976766;28;20232;-79
2020/12/25 09:42:46;;;;;;;1.20;0.10;;;;;;;3.51;99.17;101519.50;4973191;28;20267;-79
2020/12/25 09:45:11;;;;;;;1.20;0.10;;;;;;;3.55;98.76;101529.31;4976797;28;20235;-79
2020/12/25 09:47:36;;;;;;;1.13;0.10;;;;;;;3.60;98.68;101531.91;4968563;28;20201;-80
2020/12/25 09:50:03;;;;;;;1.20;0.10;;;;;;;3.60;98.58;101537.22;4963474;28;20592;-79
2020/12/25 09:52:29;;;;;;;1.20;0.10;;;;;;;3.60;97.94;101544.44;4955860;28;20206;-78
2020/12/25 09:54:54;;;;;;;1.20;0.10;;;;;;;3.65;97.99;101541.69;4958953;28;21088;-79
2020/12/25 09:57:20;;;;;;;1.30;0.20;;;;;;;3.72;97.90;101544.03;4975066;28;20194;-79
2020/12/25 09:59:46;;;;;;;1.40;0.10;;;;;;;3.73;97.93;101534.94;4974111;28;20222;-78
2020/12/25 10:02:11;;;;;;;1.20;0.10;;;;;;;3.74;97.60;101532.00;5026358;28;20217;-78
2020/12/25 10:04:37;;;;;;;1.20;0.10;;;;;;;3.74;97.62;101531.19;5032590;28;20442;-78
2020/12/25 10:07:02;;;;;;;1.17;0.10;;;;;;;3.78;98.12;101541.00;5024064;28;20543;-79
2020/12/25 10:09:28;;;;;;;1.20;0.10;;;;;;;3.75;97.34;101546.91;5013634;28;20203;-78
2020/12/25 10:11:54;;;;;;;1.20;0.10;;;;;;;3.82;98.01;101555.31;5026624;28;20211;-78
2020/12/25 10:14:20;;;;;;;1.20;0.10;;;;;;;3.87;97.48;101546.47;5030476;28;20184;-78
2020/12/25 10:16:45;;;;;;;1.30;0.10;;;;;;;3.89;97.49;101546.97;5023599;28;20955;-78
2020/12/25 10:19:11;;;;;;;1.30;0.10;;;;;;;3.92;97.03;101541.88;5027848;28;20233;-78
2020/12/25 10:21:36;;;;;;;1.37;0.13;;;;;;;3.89;97.04;101546.97;5045568;28;20206;-78
2020/12/25 10:24:02;;;;;;;1.37;0.23;;;;;;;3.88;96.88;101550.72;5024769;28;20275;-79
2020/12/25 10:26:27;;;;;;;1.40;0.20;;;;;;;3.87;96.57;101551.81;5027771;28;20184;-78
2020/12/25 10:28:53;;;;;;;1.20;0.10;;;;;;;3.89;96.30;101545.09;5028725;28;20271;-78
2020/12/25 10:31:19;;;;;;;1.20;0.10;;;;;;;3.87;95.95;101547.25;5024768;28;20206;-78
2020/12/25 10:33:45;;;;;;;1.20;0.10;;;;;;;3.90;96.53;101552.00;5034084;28;20191;-80
2020/12/25 10:36:10;;;;;;;1.30;0.10;;;;;;;4.05;95.54;101549.13;5033757;28;20441;-78
2020/12/25 10:38:36;;;;;;;1.27;0.13;;;;;;;4.19;95.96;101544.66;5029601;28;20261;-79
2020/12/25 10:41:02;;;;;;;1.20;0.10;;;;;;;4.24;95.61;101541.13;5026768;28;20215;-78
2020/12/25 10:43:28;;;;;;;1.30;0.13;;;;;;;4.37;95.55;101546.53;5034086;28;20253;-77
2020/12/25 10:45:54;;;;;;;1.20;0.10;;;;;;;4.39;95.23;101549.66;5034668;28;20445;-78
2020/12/25 10:48:19;;;;;;;1.20;0.00;;;;;;;4.42;94.69;101554.44;5045032;28;20449;-77
2020/12/25 10:50:45;;;;;;;1.30;0.10;;;;;;;4.43;95.02;101560.56;5041505;28;20664;-79
2020/12/25 10:53:10;;;;;;;1.80;0.40;;;;;;;4.44;95.08;101552.25;5037252;28;20191;-80
2020/12/25 10:55:37;;;;;;;1.50;0.30;;;;;;;4.45;94.95;101556.50;5044799;28;20561;-79
2020/12/25 10:58:02;;;;;;;1.20;0.10;;;;;;;4.50;94.74;101550.31;5022464;28;20187;-79
2020/12/25 11:00:28;;;;;;;1.93;0.30;;;;;;;4.52;94.44;101553.47;5027812;28;20473;-78
2020/12/25 11:02:53;;;;;;;1.20;0.00;;;;;;;4.55;94.09;101550.22;5029343;28;20297;-79
2020/12/25 11:05:19;;;;;;;1.20;0.10;;;;;;;4.56;93.91;101562.47;5027838;28;20694;-77
2020/12/25 11:07:45;;;;;;;2.33;0.43;;;;;;;4.54;94.29;101553.97;5031904;28;20483;-79
2020/12/25 11:10:11;;;;;;;1.30;0.10;;;;;;;4.59;94.16;101551.22;5032805;28;20196;-79
2020/12/25 11:12:36;;;;;;;2.43;0.40;;;;;;;4.60;94.15;101552.81;5025378;28;20447;-78
2020/12/25 11:15:02;;;;;;;1.20;0.10;;;;;;;4.63;93.39;101560.22;5031519;28;20207;-79
2020/12/25 11:17:28;;;;;;;1.20;0.10;;;;;;;4.68;94.06;101557.47;5021673;28;20668;-79
2020/12/25 11:19:56;;;;;;;1.20;0.10;;;;;;;4.67;93.30;101553.22;5017110;28;20435;-79
2020/12/25 11:22:22;;;;;;;1.33;0.20;;;;;;;4.65;93.25;101547.38;5031467;28;20224;-78
2020/12/25 11:24:48;;;;;;;1.20;0.10;;;;;;;4.67;93.77;101547.06;5031677;28;20431;-78
2020/12/25 11:27:13;;;;;;;1.20;0.10;;;;;;;4.77;92.97;101549.56;5021369;28;21088;-78